sensor_id;sensor_type;location;lat;lon;timestamp;temperature;humidity
72591;SHT31;60625;51.212;5.952;2023-06-14T00:02:56;19.79;48.33
72591;SHT31;60625;51.212;5.952;2023-06-14T00:07:57;19.71;49.12
72591;SHT31;60625;51.212;5.952;2023-06-14T00:13:03;19.64;49.79
72591;SHT31;60625;51.212;5.952;2023-06-14T00:18:04;19.50;50.07
72591;SHT31;60625;51.212;5.952;2023-06-14T00:23:05;19.40;50.85
72591;SHT31;60625;51.212;5.952;2023-06-14T00:28:07;19.28;51.67
72591;SHT31;60625;51.212;5.952;2023-06-14T00:33:09;19.21;51.96
72591;SHT31;60625;51.212;5.952;2023-06-14T00:38:09;19.15;51.90
72591;SHT31;60625;51.212;5.952;2023-06-14T00:43:10;19.11;51.78
72591;SHT31;60625;51.212;5.952;2023-06-14T00:48:10;19.04;51.58
72591;SHT31;60625;51.212;5.952;2023-06-14T00:53:12;19.00;51.47
72591;SHT31;60625;51.212;5.952;2023-06-14T00:58:15;18.99;50.96
72591;SHT31;60625;51.212;5.952;2023-06-14T01:03:16;18.99;50.35
72591;SHT31;60625;51.212;5.952;2023-06-14T01:13:38;18.93;50.21
72591;SHT31;60625;51.212;5.952;2023-06-14T01:18:43;18.88;50.08
72591;SHT31;60625;51.212;5.952;2023-06-14T01:23:48;18.84;49.94
72591;SHT31;60625;51.212;5.952;2023-06-14T01:28:53;18.80;50.41
72591;SHT31;60625;51.212;5.952;2023-06-14T01:33:58;18.69;50.78
72591;SHT31;60625;51.212;5.952;2023-06-14T01:38:59;18.60;51.19
72591;SHT31;60625;51.212;5.952;2023-06-14T01:44:01;18.54;51.62
72591;SHT31;60625;51.212;5.952;2023-06-14T01:49:03;18.50;51.78
72591;SHT31;60625;51.212;5.952;2023-06-14T01:54:04;18.46;52.03
72591;SHT31;60625;51.212;5.952;2023-06-14T01:59:06;18.43;51.94
72591;SHT31;60625;51.212;5.952;2023-06-14T02:04:07;18.38;52.13
72591;SHT31;60625;51.212;5.952;2023-06-14T02:09:08;18.28;52.58
72591;SHT31;60625;51.212;5.952;2023-06-14T02:14:08;18.21;52.65
72591;SHT31;60625;51.212;5.952;2023-06-14T02:19:11;18.16;52.42
72591;SHT31;60625;51.212;5.952;2023-06-14T02:24:12;18.06;52.72
72591;SHT31;60625;51.212;5.952;2023-06-14T02:29:13;17.97;52.94
72591;SHT31;60625;51.212;5.952;2023-06-14T02:34:15;17.85;53.71
72591;SHT31;60625;51.212;5.952;2023-06-14T02:39:21;17.75;54.22
72591;SHT31;60625;51.212;5.952;2023-06-14T02:44:26;17.69;54.20
72591;SHT31;60625;51.212;5.952;2023-06-14T02:49:27;17.66;54.02
72591;SHT31;60625;51.212;5.952;2023-06-14T02:54:28;17.60;54.26
72591;SHT31;60625;51.212;5.952;2023-06-14T02:59:29;17.51;54.52
72591;SHT31;60625;51.212;5.952;2023-06-14T03:04:30;17.41;54.69
72591;SHT31;60625;51.212;5.952;2023-06-14T03:09:37;17.31;54.90
72591;SHT31;60625;51.212;5.952;2023-06-14T03:14:40;17.25;55.11
72591;SHT31;60625;51.212;5.952;2023-06-14T03:19:43;17.23;54.76
72591;SHT31;60625;51.212;5.952;2023-06-14T03:24:44;17.20;54.80
72591;SHT31;60625;51.212;5.952;2023-06-14T03:29:47;17.16;54.92
72591;SHT31;60625;51.212;5.952;2023-06-14T03:34:48;17.11;54.98
72591;SHT31;60625;51.212;5.952;2023-06-14T03:39:54;17.08;55.10
72591;SHT31;60625;51.212;5.952;2023-06-14T03:44:56;17.03;55.19
72591;SHT31;60625;51.212;5.952;2023-06-14T03:49:57;17.03;55.19
72591;SHT31;60625;51.212;5.952;2023-06-14T03:54:58;17.03;55.38
72591;SHT31;60625;51.212;5.952;2023-06-14T04:00:01;17.05;55.46
72591;SHT31;60625;51.212;5.952;2023-06-14T04:05:14;17.06;55.65
72591;SHT31;60625;51.212;5.952;2023-06-14T04:10:20;17.09;55.80
72591;SHT31;60625;51.212;5.952;2023-06-14T04:15:21;17.15;55.83
72591;SHT31;60625;51.212;5.952;2023-06-14T04:20:21;17.22;55.88
72591;SHT31;60625;51.212;5.952;2023-06-14T04:25:22;17.30;56.13
72591;SHT31;60625;51.212;5.952;2023-06-14T04:30:24;17.39;56.38
72591;SHT31;60625;51.212;5.952;2023-06-14T04:35:26;17.45;56.79
72591;SHT31;60625;51.212;5.952;2023-06-14T04:40:30;17.51;56.76
72591;SHT31;60625;51.212;5.952;2023-06-14T04:45:34;17.60;56.59
72591;SHT31;60625;51.212;5.952;2023-06-14T04:50:37;17.69;56.42
72591;SHT31;60625;51.212;5.952;2023-06-14T04:55:41;17.77;56.56
72591;SHT31;60625;51.212;5.952;2023-06-14T05:00:46;17.85;56.41
72591;SHT31;60625;51.212;5.952;2023-06-14T05:05:47;17.91;55.72
72591;SHT31;60625;51.212;5.952;2023-06-14T05:10:49;17.96;55.78
72591;SHT31;60625;51.212;5.952;2023-06-14T05:15:54;18.01;56.01
72591;SHT31;60625;51.212;5.952;2023-06-14T05:20:55;18.05;55.40
72591;SHT31;60625;51.212;5.952;2023-06-14T05:25:55;18.11;55.10
72591;SHT31;60625;51.212;5.952;2023-06-14T05:30:57;18.23;55.67
72591;SHT31;60625;51.212;5.952;2023-06-14T05:35:58;18.31;55.31
72591;SHT31;60625;51.212;5.952;2023-06-14T05:40:59;18.40;55.06
72591;SHT31;60625;51.212;5.952;2023-06-14T05:45:59;18.51;55.03
72591;SHT31;60625;51.212;5.952;2023-06-14T05:51:00;18.61;54.48
72591;SHT31;60625;51.212;5.952;2023-06-14T05:56:00;18.68;54.35
72591;SHT31;60625;51.212;5.952;2023-06-14T06:01:06;18.79;54.69
72591;SHT31;60625;51.212;5.952;2023-06-14T06:06:07;18.91;54.73
72591;SHT31;60625;51.212;5.952;2023-06-14T06:11:08;19.02;54.19
72591;SHT31;60625;51.212;5.952;2023-06-14T06:16:08;19.14;53.90
72591;SHT31;60625;51.212;5.952;2023-06-14T06:21:10;19.31;53.98
72591;SHT31;60625;51.212;5.952;2023-06-14T06:26:10;19.52;53.29
72591;SHT31;60625;51.212;5.952;2023-06-14T06:31:11;19.77;53.22
72591;SHT31;60625;51.212;5.952;2023-06-14T06:36:14;20.11;50.83
72591;SHT31;60625;51.212;5.952;2023-06-14T06:41:15;20.40;48.97
72591;SHT31;60625;51.212;5.952;2023-06-14T06:46:16;20.63;48.19
72591;SHT31;60625;51.212;5.952;2023-06-14T06:51:19;20.84;47.02
72591;SHT31;60625;51.212;5.952;2023-06-14T06:56:20;21.07;46.99
72591;SHT31;60625;51.212;5.952;2023-06-14T07:01:23;21.37;46.37
72591;SHT31;60625;51.212;5.952;2023-06-14T07:06:24;21.58;44.69
72591;SHT31;60625;51.212;5.952;2023-06-14T07:11:27;21.73;43.90
72591;SHT31;60625;51.212;5.952;2023-06-14T07:16:28;21.91;42.69
72591;SHT31;60625;51.212;5.952;2023-06-14T07:21:28;22.13;41.78
72591;SHT31;60625;51.212;5.952;2023-06-14T07:26:29;22.33;41.28
72591;SHT31;60625;51.212;5.952;2023-06-14T07:31:30;22.52;42.35
72591;SHT31;60625;51.212;5.952;2023-06-14T07:36:30;22.64;41.48
72591;SHT31;60625;51.212;5.952;2023-06-14T07:41:31;22.80;41.22
72591;SHT31;60625;51.212;5.952;2023-06-14T07:46:33;23.00;40.38
72591;SHT31;60625;51.212;5.952;2023-06-14T07:51:34;23.13;39.97
72591;SHT31;60625;51.212;5.952;2023-06-14T07:56:35;23.19;39.65
72591;SHT31;60625;51.212;5.952;2023-06-14T08:01:36;23.41;40.37
72591;SHT31;60625;51.212;5.952;2023-06-14T08:06:36;23.54;38.83
72591;SHT31;60625;51.212;5.952;2023-06-14T08:11:37;23.63;38.15
72591;SHT31;60625;51.212;5.952;2023-06-14T08:16:38;23.73;38.54
72591;SHT31;60625;51.212;5.952;2023-06-14T08:21:38;23.84;37.21
72591;SHT31;60625;51.212;5.952;2023-06-14T08:26:40;23.81;36.34
72591;SHT31;60625;51.212;5.952;2023-06-14T08:31:41;23.90;37.05
72591;SHT31;60625;51.212;5.952;2023-06-14T08:36:42;24.03;36.19
72591;SHT31;60625;51.212;5.952;2023-06-14T08:41:42;24.14;36.37
72591;SHT31;60625;51.212;5.952;2023-06-14T08:46:48;24.32;36.33
72591;SHT31;60625;51.212;5.952;2023-06-14T08:51:59;24.53;36.44
72591;SHT31;60625;51.212;5.952;2023-06-14T08:57:01;24.76;32.94
72591;SHT31;60625;51.212;5.952;2023-06-14T09:02:05;24.79;32.81
72591;SHT31;60625;51.212;5.952;2023-06-14T09:07:06;24.92;31.76
72591;SHT31;60625;51.212;5.952;2023-06-14T09:12:08;25.01;30.16
72591;SHT31;60625;51.212;5.952;2023-06-14T09:17:13;25.16;28.67
72591;SHT31;60625;51.212;5.952;2023-06-14T09:22:13;25.18;28.57
72591;SHT31;60625;51.212;5.952;2023-06-14T09:27:16;25.25;28.92
72591;SHT31;60625;51.212;5.952;2023-06-14T09:32:17;25.26;28.98
72591;SHT31;60625;51.212;5.952;2023-06-14T09:37:28;25.38;28.90
72591;SHT31;60625;51.212;5.952;2023-06-14T09:42:30;25.42;29.00
72591;SHT31;60625;51.212;5.952;2023-06-14T09:47:31;25.56;29.58
72591;SHT31;60625;51.212;5.952;2023-06-14T09:52:32;25.61;28.89
72591;SHT31;60625;51.212;5.952;2023-06-14T09:57:32;25.58;29.05
72591;SHT31;60625;51.212;5.952;2023-06-14T10:02:36;25.72;29.70
72591;SHT31;60625;51.212;5.952;2023-06-14T10:12:45;26.10;30.01
72591;SHT31;60625;51.212;5.952;2023-06-14T10:17:50;26.14;29.15
72591;SHT31;60625;51.212;5.952;2023-06-14T10:28:22;26.20;29.44
72591;SHT31;60625;51.212;5.952;2023-06-14T10:33:28;26.23;30.41
72591;SHT31;60625;51.212;5.952;2023-06-14T10:38:29;26.41;30.19
72591;SHT31;60625;51.212;5.952;2023-06-14T10:43:32;26.39;29.76
72591;SHT31;60625;51.212;5.952;2023-06-14T10:48:33;26.27;30.14
72591;SHT31;60625;51.212;5.952;2023-06-14T10:53:41;26.45;30.43
72591;SHT31;60625;51.212;5.952;2023-06-14T10:58:43;26.61;30.33
72591;SHT31;60625;51.212;5.952;2023-06-14T11:03:50;26.68;29.90
72591;SHT31;60625;51.212;5.952;2023-06-14T11:14:38;26.78;30.73
72591;SHT31;60625;51.212;5.952;2023-06-14T11:19:40;26.70;31.04
72591;SHT31;60625;51.212;5.952;2023-06-14T11:24:40;26.72;31.24
72591;SHT31;60625;51.212;5.952;2023-06-14T11:29:47;26.67;30.76
72591;SHT31;60625;51.212;5.952;2023-06-14T11:34:50;26.82;31.34
72591;SHT31;60625;51.212;5.952;2023-06-14T11:39:51;26.76;30.46
72591;SHT31;60625;51.212;5.952;2023-06-14T11:44:52;26.60;29.85
72591;SHT31;60625;51.212;5.952;2023-06-14T11:49:54;26.40;29.95
72591;SHT31;60625;51.212;5.952;2023-06-14T11:54:55;26.53;30.24
72591;SHT31;60625;51.212;5.952;2023-06-14T11:59:57;26.67;30.99
72591;SHT31;60625;51.212;5.952;2023-06-14T12:05:03;26.67;31.26
72591;SHT31;60625;51.212;5.952;2023-06-14T12:10:11;26.71;31.03
72591;SHT31;60625;51.212;5.952;2023-06-14T12:15:15;26.88;30.83
72591;SHT31;60625;51.212;5.952;2023-06-14T12:20:16;26.93;30.53
72591;SHT31;60625;51.212;5.952;2023-06-14T12:25:35;26.82;30.18
72591;SHT31;60625;51.212;5.952;2023-06-14T12:30:40;26.73;30.42
72591;SHT31;60625;51.212;5.952;2023-06-14T12:35:41;26.76;30.89
72591;SHT31;60625;51.212;5.952;2023-06-14T12:40:41;26.68;30.66
72591;SHT31;60625;51.212;5.952;2023-06-14T12:45:42;26.80;30.32
72591;SHT31;60625;51.212;5.952;2023-06-14T12:50:43;26.97;30.35
72591;SHT31;60625;51.212;5.952;2023-06-14T12:55:43;26.93;30.77
72591;SHT31;60625;51.212;5.952;2023-06-14T13:00:45;26.85;29.71
72591;SHT31;60625;51.212;5.952;2023-06-14T13:05:48;26.84;30.28
72591;SHT31;60625;51.212;5.952;2023-06-14T13:10:49;27.05;30.07
72591;SHT31;60625;51.212;5.952;2023-06-14T13:15:50;27.06;30.26
72591;SHT31;60625;51.212;5.952;2023-06-14T13:20:51;27.07;29.14
72591;SHT31;60625;51.212;5.952;2023-06-14T13:25:53;27.07;28.94
72591;SHT31;60625;51.212;5.952;2023-06-14T13:30:53;26.99;29.59
72591;SHT31;60625;51.212;5.952;2023-06-14T13:35:56;26.99;29.53
72591;SHT31;60625;51.212;5.952;2023-06-14T13:40:56;27.00;29.40
72591;SHT31;60625;51.212;5.952;2023-06-14T13:45:57;27.16;30.31
72591;SHT31;60625;51.212;5.952;2023-06-14T13:50:59;27.15;30.27
72591;SHT31;60625;51.212;5.952;2023-06-14T13:56:01;27.20;30.59
72591;SHT31;60625;51.212;5.952;2023-06-14T14:01:01;27.14;28.00
72591;SHT31;60625;51.212;5.952;2023-06-14T14:06:03;27.11;28.78
72591;SHT31;60625;51.212;5.952;2023-06-14T14:11:06;27.12;29.68
72591;SHT31;60625;51.212;5.952;2023-06-14T14:16:08;27.11;29.99
72591;SHT31;60625;51.212;5.952;2023-06-14T14:21:08;27.23;30.28
72591;SHT31;60625;51.212;5.952;2023-06-14T14:26:09;27.28;30.48
72591;SHT31;60625;51.212;5.952;2023-06-14T14:31:10;27.28;30.33
72591;SHT31;60625;51.212;5.952;2023-06-14T14:36:11;27.18;30.46
72591;SHT31;60625;51.212;5.952;2023-06-14T14:41:11;27.04;30.94
72591;SHT31;60625;51.212;5.952;2023-06-14T14:46:12;27.15;30.82
72591;SHT31;60625;51.212;5.952;2023-06-14T14:51:12;27.19;30.77
72591;SHT31;60625;51.212;5.952;2023-06-14T14:56:13;27.26;30.35
72591;SHT31;60625;51.212;5.952;2023-06-14T15:01:13;27.32;30.98
72591;SHT31;60625;51.212;5.952;2023-06-14T15:06:14;27.34;30.89
72591;SHT31;60625;51.212;5.952;2023-06-14T15:11:17;27.40;30.98
72591;SHT31;60625;51.212;5.952;2023-06-14T15:16:18;27.41;30.77
72591;SHT31;60625;51.212;5.952;2023-06-14T15:21:19;27.20;30.84
72591;SHT31;60625;51.212;5.952;2023-06-14T15:26:20;27.15;31.08
72591;SHT31;60625;51.212;5.952;2023-06-14T15:31:21;27.20;31.46
72591;SHT31;60625;51.212;5.952;2023-06-14T15:36:24;27.14;31.85
72591;SHT31;60625;51.212;5.952;2023-06-14T15:41:25;27.19;31.90
72591;SHT31;60625;51.212;5.952;2023-06-14T15:46:25;27.16;31.30
72591;SHT31;60625;51.212;5.952;2023-06-14T15:51:26;27.14;31.16
72591;SHT31;60625;51.212;5.952;2023-06-14T15:56:26;27.21;31.83
72591;SHT31;60625;51.212;5.952;2023-06-14T16:01:26;27.21;32.41
72591;SHT31;60625;51.212;5.952;2023-06-14T16:06:27;27.24;32.00
72591;SHT31;60625;51.212;5.952;2023-06-14T16:11:28;27.22;31.85
72591;SHT31;60625;51.212;5.952;2023-06-14T16:16:28;27.24;32.46
72591;SHT31;60625;51.212;5.952;2023-06-14T16:21:29;27.19;32.90
72591;SHT31;60625;51.212;5.952;2023-06-14T16:26:34;27.12;32.49
72591;SHT31;60625;51.212;5.952;2023-06-14T16:31:35;27.03;32.58
72591;SHT31;60625;51.212;5.952;2023-06-14T16:36:36;26.91;32.48
72591;SHT31;60625;51.212;5.952;2023-06-14T16:41:38;26.83;33.22
72591;SHT31;60625;51.212;5.952;2023-06-14T16:46:41;26.80;33.08
72591;SHT31;60625;51.212;5.952;2023-06-14T16:51:42;26.86;33.63
72591;SHT31;60625;51.212;5.952;2023-06-14T16:56:43;26.87;33.73
72591;SHT31;60625;51.212;5.952;2023-06-14T17:01:43;26.72;33.68
72591;SHT31;60625;51.212;5.952;2023-06-14T17:06:44;26.62;33.46
72591;SHT31;60625;51.212;5.952;2023-06-14T17:11:45;26.58;33.97
72591;SHT31;60625;51.212;5.952;2023-06-14T17:16:45;26.49;34.80
72591;SHT31;60625;51.212;5.952;2023-06-14T17:21:46;26.38;34.10
72591;SHT31;60625;51.212;5.952;2023-06-14T17:26:49;26.23;34.66
72591;SHT31;60625;51.212;5.952;2023-06-14T17:31:50;26.13;34.90
72591;SHT31;60625;51.212;5.952;2023-06-14T17:36:51;26.00;34.63
72591;SHT31;60625;51.212;5.952;2023-06-14T17:41:51;25.87;34.96
72591;SHT31;60625;51.212;5.952;2023-06-14T17:46:52;25.75;34.89
72591;SHT31;60625;51.212;5.952;2023-06-14T17:51:52;25.63;35.13
72591;SHT31;60625;51.212;5.952;2023-06-14T17:56:53;25.53;34.94
72591;SHT31;60625;51.212;5.952;2023-06-14T18:01:53;25.45;35.34
72591;SHT31;60625;51.212;5.952;2023-06-14T18:06:54;25.31;35.78
72591;SHT31;60625;51.212;5.952;2023-06-14T18:11:54;25.17;35.51
72591;SHT31;60625;51.212;5.952;2023-06-14T18:16:58;25.07;35.56
72591;SHT31;60625;51.212;5.952;2023-06-14T18:21:59;24.99;36.37
72591;SHT31;60625;51.212;5.952;2023-06-14T18:26:59;24.88;36.15
72591;SHT31;60625;51.212;5.952;2023-06-14T18:32:01;24.78;36.61
72591;SHT31;60625;51.212;5.952;2023-06-14T18:37:03;24.64;36.94
72591;SHT31;60625;51.212;5.952;2023-06-14T18:42:04;24.51;36.63
72591;SHT31;60625;51.212;5.952;2023-06-14T18:47:07;24.39;37.24
72591;SHT31;60625;51.212;5.952;2023-06-14T18:52:08;24.27;37.84
72591;SHT31;60625;51.212;5.952;2023-06-14T18:57:09;24.12;38.13
72591;SHT31;60625;51.212;5.952;2023-06-14T19:02:11;23.97;38.68
72591;SHT31;60625;51.212;5.952;2023-06-14T19:07:12;23.82;39.56
72591;SHT31;60625;51.212;5.952;2023-06-14T19:12:18;23.62;40.52
72591;SHT31;60625;51.212;5.952;2023-06-14T19:17:18;23.45;41.15
72591;SHT31;60625;51.212;5.952;2023-06-14T19:22:19;23.28;41.58
72591;SHT31;60625;51.212;5.952;2023-06-14T19:27:20;23.13;41.90
72591;SHT31;60625;51.212;5.952;2023-06-14T19:32:20;23.02;42.01
72591;SHT31;60625;51.212;5.952;2023-06-14T19:37:21;22.98;42.00
72591;SHT31;60625;51.212;5.952;2023-06-14T19:42:22;22.91;42.42
72591;SHT31;60625;51.212;5.952;2023-06-14T19:47:23;22.80;43.04
72591;SHT31;60625;51.212;5.952;2023-06-14T19:52:24;22.60;43.28
72591;SHT31;60625;51.212;5.952;2023-06-14T19:57:25;22.46;43.01
72591;SHT31;60625;51.212;5.952;2023-06-14T20:02:25;22.38;43.08
72591;SHT31;60625;51.212;5.952;2023-06-14T20:07:26;22.28;43.03
72591;SHT31;60625;51.212;5.952;2023-06-14T20:12:27;22.21;43.11
72591;SHT31;60625;51.212;5.952;2023-06-14T20:17:27;22.11;43.06
72591;SHT31;60625;51.212;5.952;2023-06-14T20:22:28;22.02;42.90
72591;SHT31;60625;51.212;5.952;2023-06-14T20:27:29;21.96;43.10
72591;SHT31;60625;51.212;5.952;2023-06-14T20:32:41;21.89;43.19
72591;SHT31;60625;51.212;5.952;2023-06-14T20:37:41;21.76;43.12
72591;SHT31;60625;51.212;5.952;2023-06-14T20:42:42;21.65;43.42
72591;SHT31;60625;51.212;5.952;2023-06-14T20:47:45;21.56;43.55
72591;SHT31;60625;51.212;5.952;2023-06-14T20:52:45;21.50;44.01
72591;SHT31;60625;51.212;5.952;2023-06-14T20:57:46;21.45;44.49
72591;SHT31;60625;51.212;5.952;2023-06-14T21:02:47;21.41;44.52
72591;SHT31;60625;51.212;5.952;2023-06-14T21:07:48;21.34;44.86
72591;SHT31;60625;51.212;5.952;2023-06-14T21:12:48;21.25;45.37
72591;SHT31;60625;51.212;5.952;2023-06-14T21:17:49;21.10;45.65
72591;SHT31;60625;51.212;5.952;2023-06-14T21:22:49;20.96;46.08
72591;SHT31;60625;51.212;5.952;2023-06-14T21:27:50;20.85;46.21
72591;SHT31;60625;51.212;5.952;2023-06-14T21:32:50;20.67;46.73
72591;SHT31;60625;51.212;5.952;2023-06-14T21:37:51;20.51;47.06
72591;SHT31;60625;51.212;5.952;2023-06-14T21:42:52;20.48;47.71
72591;SHT31;60625;51.212;5.952;2023-06-14T21:47:53;20.42;47.78
72591;SHT31;60625;51.212;5.952;2023-06-14T21:52:53;20.35;48.40
72591;SHT31;60625;51.212;5.952;2023-06-14T21:57:54;20.28;48.81
72591;SHT31;60625;51.212;5.952;2023-06-14T22:02:54;20.24;49.03
72591;SHT31;60625;51.212;5.952;2023-06-14T22:07:55;20.18;49.40
72591;SHT31;60625;51.212;5.952;2023-06-14T22:12:56;20.08;49.90
72591;SHT31;60625;51.212;5.952;2023-06-14T22:17:59;20.00;50.06
72591;SHT31;60625;51.212;5.952;2023-06-14T22:23:00;19.92;50.15
72591;SHT31;60625;51.212;5.952;2023-06-14T22:28:01;19.83;50.46
72591;SHT31;60625;51.212;5.952;2023-06-14T22:33:02;19.72;50.96
72591;SHT31;60625;51.212;5.952;2023-06-14T22:38:04;19.60;51.78
72591;SHT31;60625;51.212;5.952;2023-06-14T22:43:04;19.54;52.05
72591;SHT31;60625;51.212;5.952;2023-06-14T22:48:05;19.45;52.13
72591;SHT31;60625;51.212;5.952;2023-06-14T22:53:05;19.39;51.92
72591;SHT31;60625;51.212;5.952;2023-06-14T22:58:08;19.34;52.35
72591;SHT31;60625;51.212;5.952;2023-06-14T23:03:09;19.23;53.04
72591;SHT31;60625;51.212;5.952;2023-06-14T23:08:10;19.14;53.26
72591;SHT31;60625;51.212;5.952;2023-06-14T23:13:11;19.09;52.87
72591;SHT31;60625;51.212;5.952;2023-06-14T23:18:11;19.02;53.17
72591;SHT31;60625;51.212;5.952;2023-06-14T23:23:11;18.95;53.42
72591;SHT31;60625;51.212;5.952;2023-06-14T23:28:12;18.87;53.74
72591;SHT31;60625;51.212;5.952;2023-06-14T23:33:17;18.83;53.58
72591;SHT31;60625;51.212;5.952;2023-06-14T23:38:18;18.78;53.69
72591;SHT31;60625;51.212;5.952;2023-06-14T23:43:20;18.74;53.85
72591;SHT31;60625;51.212;5.952;2023-06-14T23:48:21;18.69;54.06
72591;SHT31;60625;51.212;5.952;2023-06-14T23:53:25;18.65;54.17
72591;SHT31;60625;51.212;5.952;2023-06-14T23:58:27;18.60;54.63
